Time;durP1;ratioP1;P1;durP2;ratioP2;P2;SDS_P1;SDS_P2;PMS_P1;PMS_P2;Temp;Humidity;BMP_temperature;BMP_pressure;BME280_temperature;BME280_humidity;BME280_pressure;Samples;Min_cycle;Max_cycle;Signal;HPM_P1;HPM_P2
2021/04/26 00:03:47;;;;;;;7.85;1.60;;;;;;;5.46;74.45;102411.44;10387698;28;20056;-79
2021/04/26 00:08:50;;;;;;;6.80;1.27;;;;;;;5.06;75.01;102338.41;10368345;28;20021;-79
2021/04/26 00:13:51;;;;;;;10.82;1.77;;;;;;;5.65;75.54;102429.50;10374178;28;20191;-80
2021/04/26 00:18:51;;;;;;;11.80;1.90;;;;;;;5.19;75.30;102352.22;10367976;28;20103;-79
2021/04/26 00:23:54;;;;;;;9.98;2.28;;;;;;;5.60;75.73;102427.66;10385042;28;20548;-79
2021/04/26 00:28:57;;;;;;;11.57;1.83;;;;;;;5.16;76.22;102353.59;10373545;28;20044;-79
2021/04/26 00:39:00;;;;;;;7.95;1.70;;;;;;;5.30;77.23;102391.25;10377383;28;20151;-79
2021/04/26 00:44:01;;;;;;;9.70;1.70;;;;;;;5.26;77.42;102392.91;10385411;28;20740;-79
2021/04/26 00:49:02;;;;;;;10.65;1.92;;;;;;;5.34;77.64;102413.72;10338318;28;20047;-78
2021/04/26 00:54:03;;;;;;;17.20;1.95;;;;;;;4.82;77.56;102326.88;10371843;28;20045;-79
2021/04/26 00:59:07;;;;;;;6.45;2.03;;;;;;;4.95;77.85;102342.28;10371826;28;20119;-79
2021/04/26 01:04:08;;;;;;;7.40;1.83;;;;;;;5.26;78.49;102390.22;10357506;28;20481;-79
2021/04/26 01:09:09;;;;;;;9.23;2.17;;;;;;;4.92;78.84;102345.53;10364340;28;20037;-79
2021/04/26 01:14:27;;;;;;;8.23;2.10;;;;;;;5.32;78.63;102383.72;10388070;28;20036;-79
2021/04/26 01:19:46;;;;;;;12.70;1.85;;;;;;;4.74;78.54;102314.09;10375642;28;20064;-79
2021/04/26 01:24:58;;;;;;;10.32;2.00;;;;;;;5.05;79.03;102368.97;10371388;28;20538;-79
2021/04/26 01:30:10;;;;;;;10.52;1.73;;;;;;;5.11;78.86;102385.03;10361428;28;20932;-79
2021/04/26 01:35:13;;;;;;;8.57;2.03;;;;;;;4.81;78.86;102333.31;10348924;28;20056;-80
2021/04/26 01:40:16;;;;;;;14.15;1.75;;;;;;;4.98;79.15;102371.19;10354762;28;20135;-80
2021/04/26 01:45:17;;;;;;;7.10;1.90;;;;;;;4.57;79.99;102315.31;10386187;28;20444;-81
2021/04/26 01:50:18;;;;;;;6.30;2.03;;;;;;;4.94;79.50;102367.50;10351512;28;20041;-80
2021/04/26 01:55:21;;;;;;;9.80;2.17;;;;;;;4.65;79.88;102344.16;10363757;28;20037;-79
2021/04/26 02:00:26;;;;;;;8.20;1.63;;;;;;;4.72;80.52;102337.69;10335191;28;20421;-80
2021/04/26 02:05:29;;;;;;;9.30;1.80;;;;;;;4.20;80.30;102273.88;10368329;28;21010;-79
2021/04/26 02:10:30;;;;;;;17.90;2.63;;;;;;;4.37;80.84;102288.72;10348164;28;20044;-80
2021/04/26 02:15:32;;;;;;;9.05;2.08;;;;;;;4.28;80.93;102274.34;10367617;28;20041;-78
2021/04/26 02:20:32;;;;;;;10.32;2.30;;;;;;;4.10;80.93;102247.19;10358605;28;21225;-80
2021/04/26 02:25:33;;;;;;;10.45;2.45;;;;;;;4.22;81.76;102277.06;10360015;28;20151;-78
2021/04/26 02:30:37;;;;;;;11.68;1.85;;;;;;;4.19;81.80;102283.00;10357328;28;20192;-78
2021/04/26 02:35:49;;;;;;;5.10;1.80;;;;;;;4.42;82.29;102318.13;10371064;28;20065;-79
2021/04/26 02:40:55;;;;;;;14.68;2.13;;;;;;;4.18;82.48;102281.38;10354089;28;20036;-78
2021/04/26 02:45:59;;;;;;;8.75;1.75;;;;;;;4.40;82.52;102317.63;10377949;28;20048;-78
2021/04/26 02:51:00;;;;;;;11.88;2.08;;;;;;;4.31;82.60;102305.94;10367600;28;20292;-78
2021/04/26 02:56:10;;;;;;;8.05;2.30;;;;;;;4.36;82.64;102308.56;10384468;28;20046;-78
2021/04/26 03:01:12;;;;;;;8.85;2.10;;;;;;;4.06;82.70;102266.78;10372104;28;20764;-79
2021/04/26 03:06:13;;;;;;;9.77;2.17;;;;;;;4.10;83.22;102267.81;10351362;28;20507;-79
2021/04/26 03:11:15;;;;;;;11.07;2.20;;;;;;;4.19;83.49;102287.56;10354267;28;21083;-77
2021/04/26 03:16:16;;;;;;;14.60;2.35;;;;;;;3.92;83.98;102239.84;10344510;28;20982;-78
2021/04/26 03:21:17;;;;;;;7.30;2.17;;;;;;;4.04;83.74;102264.38;10388212;28;20056;-78
2021/04/26 03:26:20;;;;;;;7.15;1.95;;;;;;;4.21;83.87;102291.53;10371931;28;20827;-78
2021/04/26 03:31:23;;;;;;;8.60;2.22;;;;;;;4.10;84.17;102279.31;10359212;28;20080;-79
2021/04/26 03:36:25;;;;;;;9.55;2.22;;;;;;;4.11;84.25;102282.78;10374295;28;20045;-78
2021/04/26 03:41:28;;;;;;;12.25;2.30;;;;;;;4.03;84.56;102257.44;10364345;28;20055;-81
2021/04/26 03:46:28;;;;;;;9.07;2.40;;;;;;;3.93;84.23;102257.50;10387161;28;20052;-80
2021/04/26 03:51:29;;;;;;;8.05;2.28;;;;;;;3.86;84.95;102251.66;10373339;28;20128;-80
2021/04/26 03:56:30;;;;;;;24.20;4.70;;;;;;;3.76;84.80;102242.66;10349370;28;20041;-79
2021/04/26 04:01:33;;;;;;;12.30;2.75;;;;;;;3.50;85.82;102212.56;10364342;28;20124;-80
2021/04/26 04:06:34;;;;;;;6.50;2.13;;;;;;;3.74;85.62;102260.84;10352599;28;20033;-79
2021/04/26 04:11:35;;;;;;;12.23;2.58;;;;;;;3.63;86.36;102248.59;10367412;28;22141;-79
2021/04/26 04:16:36;;;;;;;11.02;2.78;;;;;;;3.67;87.41;102260.34;10338416;28;20037;-79
2021/04/26 04:21:37;;;;;;;6.22;2.10;;;;;;;3.67;86.85;102249.66;10380097;28;20467;-78
2021/04/26 04:26:37;;;;;;;9.00;2.35;;;;;;;3.17;87.56;102171.34;10366585;28;20043;-79
2021/04/26 04:31:40;;;;;;;6.38;2.05;;;;;;;3.64;87.37;102249.41;10364718;28;20053;-79
2021/04/26 04:36:44;;;;;;;16.88;3.08;;;;;;;3.34;87.14;102203.88;10366287;28;20179;-82
2021/04/26 04:41:49;;;;;;;6.97;2.70;;;;;;;3.69;87.64;102252.88;10373468;28;20076;-80
2021/04/26 04:46:50;;;;;;;;;;;;;;;3.68;88.37;102248.56;10376519;28;21958;-81
2021/04/26 04:51:54;;;;;;;10.38;2.33;;;;;;;3.65;88.01;102246.47;10398769;28;19929;-80
2021/04/26 04:56:54;;;;;;;14.18;2.38;;;;;;;3.31;88.87;102204.41;10360381;28;20049;-81
2021/04/26 05:01:55;;;;;;;15.60;3.58;;;;;;;3.59;89.65;102248.34;10370401;28;20091;-82
2021/04/26 05:06:55;;;;;;;11.57;2.92;;;;;;;3.63;89.55;102253.97;10384403;28;20051;-81
2021/04/26 05:11:58;;;;;;;32.40;5.28;;;;;;;3.22;89.24;102184.69;10360701;28;20971;-81
2021/04/26 05:17:00;;;;;;;8.40;2.53;;;;;;;3.63;90.52;102237.91;10378980;28;20815;-83
2021/04/26 05:22:01;;;;;;;8.37;1.93;;;;;;;3.63;90.69;102237.91;10323468;28;20211;-81
2021/04/26 05:27:02;;;;;;;7.05;2.22;;;;;;;3.69;90.27;102231.47;10347013;28;20505;-78
2021/04/26 05:32:06;;;;;;;15.13;3.17;;;;;;;3.79;90.77;102247.44;10369775;28;20068;-79
2021/04/26 05:37:06;;;;;;;9.73;2.03;;;;;;;3.74;90.18;102228.75;10368507;28;20489;-79
2021/04/26 05:42:07;;;;;;;7.63;2.60;;;;;;;3.97;89.12;102253.19;10345619;28;20094;-79
2021/04/26 05:47:08;;;;;;;7.80;2.25;;;;;;;3.95;89.97;102239.28;10360827;28;20044;-79
2021/04/26 05:52:11;;;;;;;16.52;3.58;;;;;;;3.56;89.67;102151.88;10353012;28;20829;-79
2021/04/26 05:57:12;;;;;;;10.10;2.75;;;;;;;4.12;88.91;102234.34;10351550;28;20025;-79
2021/04/26 06:02:15;;;;;;;7.72;2.53;;;;;;;4.04;88.14;102189.44;10364282;28;20055;-80
2021/04/26 06:07:16;;;;;;;9.68;2.78;;;;;;;4.41;87.47;102237.00;10370028;28;20115;-80
2021/04/26 06:12:17;;;;;;;11.38;2.60;;;;;;;4.55;86.76;102239.81;10357905;28;20038;-79
2021/04/26 06:17:18;;;;;;;9.43;2.58;;;;;;;4.39;85.69;102200.88;10357273;28;20809;-79
2021/04/26 06:22:18;;;;;;;9.13;2.58;;;;;;;4.49;83.70;102184.72;10361067;28;20037;-78
2021/04/26 06:27:19;;;;;;;9.32;2.33;;;;;;;5.01;81.99;102223.25;10388286;28;20152;-79
2021/04/26 06:32:23;;;;;;;5.65;2.15;;;;;;;5.12;80.74;102217.75;10383518;28;20065;-81
2021/04/26 06:37:28;;;;;;;12.80;2.50;;;;;;;5.07;79.24;102192.59;10356922;28;20648;-78
2021/04/26 06:42:29;;;;;;;;;;;;;;;5.38;76.37;102227.03;10372229;28;20044;-79
2021/04/26 06:47:32;;;;;;;9.32;2.30;;;;;;;4.42;75.34;102042.34;10380029;28;20576;-78
2021/04/26 06:52:33;;;;;;;7.47;2.72;;;;;;;5.68;75.25;102214.28;10356738;28;20052;-79
2021/04/26 06:57:33;;;;;;;8.45;2.22;;;;;;;5.84;72.89;102212.94;10355045;28;20250;-78
2021/04/26 07:02:36;;;;;;;22.65;3.13;;;;;;;5.38;72.42;102135.84;10376377;28;20045;-81
2021/04/26 07:07:37;;;;;;;6.97;2.40;;;;;;;6.12;71.18;102237.22;10371936;28;20060;-79
2021/04/26 07:12:40;;;;;;;8.18;2.10;;;;;;;5.67;72.12;102132.22;10368389;28;20040;-78
2021/04/26 07:17:44;;;;;;;5.07;2.15;;;;;;;5.87;72.09;102158.66;10373860;28;20041;-81
2021/04/26 07:22:44;;;;;;;6.43;2.30;;;;;;;6.47;70.68;102202.78;10344034;28;20045;-78
2021/04/26 07:27:45;;;;;;;7.82;2.30;;;;;;;6.76;69.48;102200.56;10387559;28;20041;-78
2021/04/26 07:32:49;;;;;;;7.38;2.05;;;;;;;8.15;65.53;102189.34;10405221;28;20052;-76
2021/04/26 07:37:50;;;;;;;10.25;2.70;;;;;;;10.19;57.50;102187.03;10398112;28;22150;-79
2021/04/26 07:42:51;;;;;;;7.32;1.80;;;;;;;11.82;49.87;102142.09;10391919;28;20167;-78
2021/04/26 07:47:54;;;;;;;5.15;1.77;;;;;;;13.89;44.54;102152.91;10382396;28;20029;-76
2021/04/26 07:52:55;;;;;;;4.65;1.70;;;;;;;16.40;39.48;102196.25;10361700;28;20041;-78
2021/04/26 07:57:56;;;;;;;4.80;1.77;;;;;;;16.54;36.81;102146.56;10358496;28;20036;-80
2021/04/26 08:03:02;;;;;;;5.00;1.88;;;;;;;18.82;31.58;102086.19;10360509;28;20106;-83
2021/04/26 08:08:03;;;;;;;5.93;1.60;;;;;;;18.15;33.54;102164.78;10375535;28;20035;-81
2021/04/26 08:13:03;;;;;;;4.45;1.83;;;;;;;18.50;32.78;102092.25;10390828;28;20050;-83
2021/04/26 08:18:05;;;;;;;6.63;2.10;;;;;;;20.62;29.56;102170.22;10370260;28;20048;-80
2021/04/26 08:23:05;;;;;;;7.05;1.70;;;;;;;19.13;31.48;102166.16;10379557;28;20087;-77
2021/04/26 08:28:07;;;;;;;14.77;2.50;;;;;;;19.22;31.32;102155.63;10359835;28;20044;-80
2021/04/26 08:33:09;;;;;;;10.02;2.58;;;;;;;19.59;30.02;102149.03;10333378;28;20486;-80
2021/04/26 08:38:12;;;;;;;6.25;2.88;;;;;;;19.72;29.58;102125.56;10338835;28;20311;-78
2021/04/26 08:43:14;;;;;;;30.33;3.70;;;;;;;20.81;28.81;102137.97;10324862;28;21849;-79
2021/04/26 08:48:17;;;;;;;8.77;2.60;;;;;;;21.00;28.18;102143.03;10337640;28;20042;-76
2021/04/26 08:53:20;;;;;;;21.73;2.55;;;;;;;21.60;27.09;102148.59;10343444;28;20060;-76
2021/04/26 08:58:26;;;;;;;8.35;2.13;;;;;;;20.75;27.15;102095.63;10339697;28;20280;-78
2021/04/26 09:03:34;;;;;;;7.43;2.08;;;;;;;21.22;27.21;102129.94;10344485;28;20046;-76
2021/04/26 09:08:35;;;;;;;5.68;1.98;;;;;;;21.50;25.76;102112.50;10350254;28;20359;-78
2021/04/26 09:13:41;;;;;;;5.95;1.85;;;;;;;21.76;26.44;102113.09;10345546;28;20406;-79
2021/04/26 09:19:03;;;;;;;6.43;2.20;;;;;;;21.68;25.41;102084.06;10344001;28;20925;-79
2021/04/26 09:24:14;;;;;;;13.00;1.90;;;;;;;22.53;24.83;102100.94;10347676;28;20172;-79
2021/04/26 09:29:22;;;;;;;10.50;2.30;;;;;;;22.41;24.60;102085.72;10351171;28;20276;-75
2021/04/26 09:34:41;;;;;;;8.23;2.38;;;;;;;21.68;25.75;102084.06;10379339;28;20132;-76
2021/04/26 09:39:57;;;;;;;5.20;2.30;;;;;;;21.74;25.88;102098.97;10377643;28;20175;-82
2021/04/26 09:45:23;;;;;;;7.88;2.40;;;;;;;22.00;24.82;102055.47;10385996;28;20582;-81
2021/04/26 09:50:23;;;;;;;8.45;2.92;;;;;;;22.06;24.62;102059.31;10392586;28;20562;-81
2021/04/26 09:55:31;;;;;;;4.95;2.05;;;;;;;22.69;24.06;102062.56;10358297;28;20041;-80
2021/04/26 10:00:32;;;;;;;5.40;2.22;;;;;;;21.52;25.69;101983.59;10374426;28;20350;-75
2021/04/26 10:05:33;;;;;;;6.68;2.42;;;;;;;21.87;24.87;101998.19;10341729;28;20073;-77
2021/04/26 10:10:34;;;;;;;4.95;2.17;;;;;;;21.75;25.33;102028.97;10362388;28;20136;-77
2021/04/26 10:15:34;;;;;;;6.60;2.67;;;;;;;21.71;23.77;101989.69;10391450;28;20666;-79
2021/04/26 10:20:39;;;;;;;7.75;2.50;;;;;;;22.10;23.54;102038.06;10375892;28;20042;-81
2021/04/26 10:25:41;;;;;;;5.13;2.13;;;;;;;22.36;23.69;101985.06;10393145;28;20071;-78
2021/04/26 10:31:18;;;;;;;7.28;3.17;;;;;;;22.13;24.06;102010.50;10384754;28;20105;-79
2021/04/26 10:36:56;;;;;;;7.95;2.50;;;;;;;21.86;25.52;101980.09;10394870;28;20041;-79
2021/04/26 10:41:59;;;;;;;8.07;3.38;;;;;;;21.67;36.58;101994.47;10376215;28;20397;-81
2021/04/26 10:47:25;;;;;;;10.98;2.60;;;;;;;21.52;32.64;101989.09;10359391;28;20780;-79
2021/04/26 10:57:56;;;;;;;7.80;2.25;;;;;;;19.26;35.49;101961.78;10390215;28;20210;-81
2021/04/26 11:03:05;;;;;;;8.25;2.45;;;;;;;19.00;37.02;101999.34;10383233;28;20037;-83
2021/04/26 11:08:50;;;;;;;8.95;2.38;;;;;;;19.25;34.31;101981.38;10396200;28;20048;-86
2021/04/26 11:13:55;;;;;;;6.88;2.63;;;;;;;18.07;32.83;101955.19;10402920;28;20036;-83
2021/04/26 11:18:58;;;;;;;9.93;2.40;;;;;;;18.61;35.67;101979.28;10363085;28;20041;-81
2021/04/26 11:23:59;;;;;;;8.23;3.13;;;;;;;18.54;32.22;101956.16;10380414;28;20045;-84
2021/04/26 11:29:08;;;;;;;6.80;2.55;;;;;;;18.54;30.98;101939.75;10378664;28;20561;-80
2021/04/26 11:34:19;;;;;;;5.70;2.10;;;;;;;18.86;30.80;101966.47;10376370;28;20049;-84
2021/04/26 11:39:26;;;;;;;7.72;2.58;;;;;;;18.91;31.41;101966.06;10358824;28;20183;-84
2021/04/26 11:44:29;;;;;;;5.70;2.20;;;;;;;18.85;28.90;101921.03;10390491;28;20032;-81
2021/04/26 11:49:33;;;;;;;5.25;2.20;;;;;;;19.55;27.61;101934.34;10390772;28;20428;-84
2021/04/26 11:54:34;;;;;;;7.43;2.53;;;;;;;19.05;30.28;101939.84;10386600;28;20056;-84
2021/04/26 11:59:35;;;;;;;10.35;2.83;;;;;;;18.96;29.68;101864.31;10386082;28;20072;-83
2021/04/26 12:04:42;;;;;;;6.87;2.60;;;;;;;19.46;30.33;101926.50;10369995;28;20124;-83
2021/04/26 12:09:47;;;;;;;8.48;2.17;;;;;;;19.06;29.78;101903.06;10382032;28;20045;-81
2021/04/26 12:14:55;;;;;;;26.45;3.33;;;;;;;19.37;27.21;101869.34;10362947;28;20071;-84
2021/04/26 12:19:56;;;;;;;6.10;2.55;;;;;;;19.83;27.54;101906.88;10391348;28;20040;-82
2021/04/26 12:24:57;;;;;;;6.57;2.22;;;;;;;19.28;28.43;101852.50;10363441;28;20503;-81
2021/04/26 12:30:22;;;;;;;6.80;2.60;;;;;;;19.12;29.09;101863.91;10372939;28;20449;-83
2021/04/26 12:35:28;;;;;;;11.52;2.53;;;;;;;19.24;27.82;101868.19;10328162;28;20095;-81
2021/04/26 12:40:33;;;;;;;7.28;2.75;;;;;;;18.83;27.85;101805.59;10345584;28;20051;-76
2021/04/26 12:45:34;;;;;;;5.25;1.92;;;;;;;19.18;28.48;101869.75;10338889;28;20045;-77
2021/04/26 12:50:37;;;;;;;5.40;2.23;;;;;;;18.99;29.01;101849.81;10341062;28;20136;-75
2021/04/26 12:56:04;;;;;;;8.32;2.78;;;;;;;19.50;27.20;101827.81;10341387;28;20128;-77
2021/04/26 13:01:13;;;;;;;5.82;2.67;;;;;;;19.40;27.41;101835.66;10332322;28;20060;-73
2021/04/26 13:06:25;;;;;;;6.78;2.53;;;;;;;19.21;28.05;101779.31;10338887;28;20049;-74
2021/04/26 13:11:36;;;;;;;4.90;2.35;;;;;;;19.49;27.87;101812.50;10345853;28;20489;-82
2021/04/26 13:16:38;;;;;;;4.78;2.70;;;;;;;19.08;28.59;101813.00;10336220;28;20807;-74
2021/04/26 13:21:44;;;;;;;6.43;2.55;;;;;;;19.26;27.42;101731.53;10338743;28;20037;-75
2021/04/26 13:27:11;;;;;;;10.48;2.50;;;;;;;19.81;26.15;101794.00;10337644;28;20029;-76
2021/04/26 13:32:11;;;;;;;7.20;2.30;;;;;;;19.61;26.85;101776.41;10343592;28;20797;-77
2021/04/26 13:37:12;;;;;;;4.38;2.83;;;;;;;19.51;26.91;101786.25;10370336;28;20037;-76
2021/04/26 13:42:14;;;;;;;7.85;2.95;;;;;;;19.61;26.78;101784.63;10381070;28;20041;-76
2021/04/26 13:47:14;;;;;;;7.85;2.40;;;;;;;19.34;27.47;101787.88;10385061;28;20034;-75
2021/04/26 13:52:15;;;;;;;8.50;2.45;;;;;;;19.32;25.99;101740.91;10341486;28;20041;-74
2021/04/26 13:57:15;;;;;;;10.85;2.55;;;;;;;18.83;26.90;101723.41;10330684;28;20259;-72
2021/04/26 14:02:16;;;;;;;7.10;2.67;;;;;;;18.59;28.00;101712.06;10347956;28;20323;-74
2021/04/26 14:07:17;;;;;;;7.78;2.88;;;;;;;18.97;26.75;101731.59;10360270;28;20308;-77
2021/04/26 14:12:17;;;;;;;7.00;3.10;;;;;;;18.70;27.68;101695.66;10381051;28;20044;-77
2021/04/26 14:17:18;;;;;;;9.05;2.60;;;;;;;18.77;28.56;101705.84;10346009;28;21053;-76
2021/04/26 14:22:18;;;;;;;4.63;2.50;;;;;;;18.80;28.62;101683.13;10380460;28;20072;-75
2021/04/26 14:27:19;;;;;;;5.78;2.40;;;;;;;18.79;29.24;101692.53;10367132;28;20111;-75
2021/04/26 14:32:20;;;;;;;7.22;2.85;;;;;;;18.72;29.68;101659.63;10348364;28;20824;-78
2021/04/26 14:37:22;;;;;;;8.90;3.38;;;;;;;18.48;28.78;101620.97;10380425;28;20603;-76
2021/04/26 14:42:23;;;;;;;;;;;;;;;19.06;28.76;101672.88;10370333;28;20465;-77
2021/04/26 14:47:24;;;;;;;8.73;2.60;;;;;;;18.62;29.29;101660.44;10383870;28;20029;-74
2021/04/26 14:52:25;;;;;;;10.60;3.17;;;;;;;18.76;28.63;101624.81;10389432;28;20041;-75
2021/04/26 14:57:25;;;;;;;7.72;2.80;;;;;;;18.53;30.16;101626.06;10367318;28;20044;-78
2021/04/26 15:02:26;;;;;;;6.60;3.08;;;;;;;18.49;30.37;101581.47;10342004;28;20504;-78
2021/04/26 15:07:26;;;;;;;9.30;3.33;;;;;;;17.87;31.36;101581.94;10386920;28;20133;-77
2021/04/26 15:12:28;;;;;;;10.55;5.32;;;;;;;18.38;31.88;101619.03;10388081;28;22070;-73
2021/04/26 15:17:30;;;;;;;8.18;3.35;;;;;;;18.58;31.10;101628.38;10368251;28;20406;-76
2021/04/26 15:22:33;;;;;;;10.13;3.58;;;;;;;18.30;32.31;101612.03;10384695;28;20045;-77
2021/04/26 15:27:33;;;;;;;8.45;3.47;;;;;;;18.00;31.92;101566.72;10329529;28;20594;-82
2021/04/26 15:32:34;;;;;;;9.95;3.22;;;;;;;17.21;33.02;101549.44;10362828;28;20135;-80
2021/04/26 15:37:35;;;;;;;7.05;2.90;;;;;;;18.06;31.77;101576.09;10361162;28;20048;-83
2021/04/26 15:42:36;;;;;;;6.95;2.70;;;;;;;18.10;31.63;101600.69;10362122;28;20776;-78
2021/04/26 15:47:37;;;;;;;9.45;3.30;;;;;;;17.46;33.18;101565.88;10372005;28;20590;-85
2021/04/26 15:52:38;;;;;;;8.43;3.08;;;;;;;17.57;33.10;101599.50;10341866;28;20036;-79
2021/04/26 15:57:38;;;;;;;6.28;2.83;;;;;;;17.58;33.95;101590.09;10370210;28;20032;-77
2021/04/26 16:02:39;;;;;;;8.95;4.40;;;;;;;17.47;33.62;101562.78;10375047;28;20719;-81
2021/04/26 16:07:40;;;;;;;10.10;3.15;;;;;;;17.84;33.09;101596.41;10366445;28;20033;-79
2021/04/26 16:12:41;;;;;;;7.05;2.80;;;;;;;17.39;32.71;101544.03;10374057;28;20152;-80
2021/04/26 16:17:42;;;;;;;10.50;3.30;;;;;;;17.55;32.88;101569.03;10373597;28;20758;-81
2021/04/26 16:22:43;;;;;;;11.63;3.90;;;;;;;17.00;34.21;101534.59;10339453;28;20064;-79
2021/04/26 16:27:44;;;;;;;7.13;3.35;;;;;;;16.42;34.43;101522.63;10366780;28;20048;-76
2021/04/26 16:32:46;;;;;;;9.57;3.20;;;;;;;17.00;34.33;101566.56;10305360;28;20509;-79
2021/04/26 16:37:49;;;;;;;;;;;;;;;16.82;35.15;101561.81;10349892;28;20203;-80
2021/04/26 16:42:50;;;;;;;8.13;3.05;;;;;;;16.72;34.85;101540.72;10347983;28;19929;-79
2021/04/26 16:47:52;;;;;;;5.95;2.75;;;;;;;16.61;34.31;101496.97;10345512;28;20040;-77
2021/04/26 16:52:53;;;;;;;9.93;2.42;;;;;;;17.21;33.05;101550.22;10353487;28;20044;-77
2021/04/26 16:57:56;;;;;;;5.07;2.08;;;;;;;16.47;33.46;101486.78;10353307;28;20964;-77
2021/04/26 17:02:57;;;;;;;5.38;2.63;;;;;;;16.43;34.26;101546.00;10352616;28;21877;-76
2021/04/26 17:07:58;;;;;;;5.80;2.70;;;;;;;16.35;33.65;101500.00;10353412;28;20055;-77
2021/04/26 17:13:00;;;;;;;11.43;2.50;;;;;;;16.26;34.08;101519.44;10345392;28;20029;-76
2021/04/26 17:18:02;;;;;;;7.60;2.42;;;;;;;15.65;35.33;101481.59;10367788;28;20537;-75
2021/04/26 17:23:03;;;;;;;8.20;3.50;;;;;;;15.70;35.83;101526.03;10353327;28;20107;-78
2021/04/26 17:28:04;;;;;;;4.60;2.15;;;;;;;15.54;35.28;101524.34;10367334;28;20032;-79
2021/04/26 17:33:04;;;;;;;5.65;2.22;;;;;;;15.41;35.16;101525.78;10351061;28;20942;-77
2021/04/26 17:38:11;;;;;;;8.32;2.53;;;;;;;15.13;35.71;101521.63;10370383;28;20600;-79
2021/04/26 17:43:23;;;;;;;6.43;2.60;;;;;;;15.00;35.68;101502.06;10343185;28;20053;-77
2021/04/26 17:48:25;;;;;;;4.30;2.22;;;;;;;14.61;37.27;101512.50;10333442;28;20162;-77
2021/04/26 17:53:26;;;;;;;6.15;2.47;;;;;;;14.06;37.89;101449.59;10319298;28;20037;-77
2021/04/26 17:58:27;;;;;;;9.55;2.38;;;;;;;14.36;38.34;101496.59;10349027;28;20616;-80
2021/04/26 18:03:27;;;;;;;3.58;1.77;;;;;;;13.82;39.45;101462.47;10319495;28;20037;-75
2021/04/26 18:08:28;;;;;;;6.30;1.88;;;;;;;13.70;39.54;101449.09;10367958;28;20047;-75
2021/04/26 18:13:29;;;;;;;9.38;2.50;;;;;;;13.40;40.93;101471.50;10365059;28;20041;-74
2021/04/26 18:18:29;;;;;;;7.03;2.10;;;;;;;13.24;41.53;101492.53;10352763;28;20591;-76
2021/04/26 18:23:30;;;;;;;8.85;1.80;;;;;;;13.01;41.99;101485.16;10373006;28;20486;-74
2021/04/26 18:28:31;;;;;;;6.78;2.08;;;;;;;13.18;42.30;101511.06;10342652;28;20036;-76
2021/04/26 18:33:34;;;;;;;8.82;2.20;;;;;;;12.70;43.93;101502.41;10358226;28;20177;-75
2021/04/26 18:38:37;;;;;;;5.20;2.08;;;;;;;12.50;44.05;101488.03;10366977;28;20118;-75
2021/04/26 18:43:37;;;;;;;8.35;2.38;;;;;;;12.48;44.67;101512.78;10344045;28;20119;-77
2021/04/26 18:48:38;;;;;;;6.32;2.35;;;;;;;12.25;45.30;101520.84;10348104;28;20761;-75
2021/04/26 18:53:38;;;;;;;73.30;6.10;;;;;;;12.09;46.40;101528.22;10353085;28;20032;-82
2021/04/26 18:58:40;;;;;;;6.30;2.60;;;;;;;12.03;46.32;101533.09;10322566;28;20124;-76
2021/04/26 19:03:42;;;;;;;10.38;2.03;;;;;;;11.62;47.13;101488.38;10343679;28;20477;-79
2021/04/26 19:08:46;;;;;;;5.95;2.55;;;;;;;11.15;48.01;101470.19;10352245;28;20036;-77
2021/04/26 19:13:46;;;;;;;6.15;2.28;;;;;;;11.34;49.73;101532.56;10340367;28;20079;-77
2021/04/26 19:18:47;;;;;;;9.73;2.20;;;;;;;11.35;49.68;101528.69;10365603;28;20063;-77
2021/04/26 19:23:48;;;;;;;8.18;2.50;;;;;;;11.07;51.50;101527.94;10335545;28;20582;-78
2021/04/26 19:28:49;;;;;;;8.98;1.92;;;;;;;10.97;52.33;101540.84;10368625;28;20875;-77
2021/04/26 19:33:49;;;;;;;6.22;2.47;;;;;;;10.78;54.08;101538.00;10354544;28;20817;-77
2021/04/26 19:38:51;;;;;;;7.28;2.42;;;;;;;10.69;54.26;101545.44;10372923;28;20052;-77
2021/04/26 19:43:54;;;;;;;9.15;2.72;;;;;;;10.02;55.32;101443.09;10383989;28;20064;-78
2021/04/26 19:48:59;;;;;;;8.85;3.20;;;;;;;9.62;56.48;101407.91;10349068;28;20052;-77
2021/04/26 19:54:06;;;;;;;8.90;3.17;;;;;;;10.31;57.05;101525.03;10371398;28;20359;-81
2021/04/26 19:59:10;;;;;;;7.80;2.80;;;;;;;10.15;57.87;101512.16;10357617;28;20112;-78
2021/04/26 20:04:12;;;;;;;4.72;2.47;;;;;;;10.02;58.80;101507.94;10358298;28;20269;-79
2021/04/26 20:09:15;;;;;;;8.00;2.20;;;;;;;9.89;59.20;101511.75;10344641;28;20049;-77
2021/04/26 20:14:20;;;;;;;;;;;;;;;9.90;60.00;101521.41;10315301;28;20564;-78
2021/04/26 20:19:22;;;;;;;11.43;2.90;;;;;;;9.83;60.16;101532.00;10331734;28;20694;-74
2021/04/26 20:24:27;;;;;;;6.50;2.45;;;;;;;9.78;60.52;101524.13;10265235;28;20132;-78
2021/04/26 20:29:29;;;;;;;9.15;2.58;;;;;;;9.57;61.09;101510.72;10248403;28;20046;-77
2021/04/26 20:34:37;;;;;;;7.53;2.75;;;;;;;9.50;61.26;101498.56;10295626;28;20159;-74
2021/04/26 20:39:40;;;;;;;8.10;2.35;;;;;;;9.54;61.10;101509.47;10265525;28;20078;-76
2021/04/26 20:44:43;;;;;;;6.38;2.53;;;;;;;9.43;61.71;101508.31;10279028;28;20038;-77
2021/04/26 20:49:46;;;;;;;;;;;;;;;9.30;62.41;101504.81;10269866;28;20058;-76
2021/04/26 20:54:52;;;;;;;4.63;2.20;;;;;;;9.11;62.60;101475.66;10260161;28;20406;-77
2021/04/26 20:59:53;;;;;;;5.57;2.50;;;;;;;9.24;62.63;101501.56;10293636;28;20081;-78
2021/04/26 21:04:54;;;;;;;5.25;2.10;;;;;;;9.07;63.71;101480.13;10279033;28;20052;-77
2021/04/26 21:09:55;;;;;;;5.90;2.10;;;;;;;8.55;64.30;101442.88;10282224;28;20678;-74
2021/04/26 21:14:56;;;;;;;7.13;2.40;;;;;;;8.82;64.80;101484.69;10327857;28;20268;-75
2021/04/26 21:19:57;;;;;;;4.97;2.17;;;;;;;8.74;64.89;101478.22;10342948;28;20503;-81
2021/04/26 21:24:57;;;;;;;6.15;2.38;;;;;;;8.73;65.29;101482.06;10348340;28;20123;-78
2021/04/26 21:29:58;;;;;;;9.15;3.50;;;;;;;8.55;65.64;101454.44;10354673;28;20044;-80
2021/04/26 21:35:01;;;;;;;6.57;2.88;;;;;;;8.59;65.98;101470.75;10366180;28;20049;-81
2021/04/26 21:40:04;;;;;;;6.32;2.90;;;;;;;8.01;65.98;101397.78;10359168;28;20159;-81
2021/04/26 21:45:05;;;;;;;8.13;2.40;;;;;;;8.46;66.75;101462.59;10365791;28;20405;-82
2021/04/26 21:50:09;;;;;;;11.70;4.47;;;;;;;8.36;67.29;101457.56;10357084;28;20999;-81
2021/04/26 21:55:11;;;;;;;11.45;3.50;;;;;;;8.34;67.23;101457.13;10375750;28;20037;-80
2021/04/26 22:00:16;;;;;;;9.37;2.83;;;;;;;8.07;67.73;101428.00;10363789;28;20116;-80
2021/04/26 22:05:18;;;;;;;6.22;3.00;;;;;;;7.83;68.38;101402.50;10354760;28;20029;-80
2021/04/26 22:10:24;;;;;;;8.48;3.10;;;;;;;8.07;68.78;101454.91;10359926;28;20037;-80
2021/04/26 22:15:25;;;;;;;5.93;3.00;;;;;;;8.01;68.97;101452.41;10352381;28;20060;-79
2021/04/26 22:20:25;;;;;;;8.30;2.97;;;;;;;7.91;69.35;101458.19;10353746;28;20184;-80
2021/04/26 22:25:26;;;;;;;8.65;3.67;;;;;;;7.18;69.17;101356.94;10386771;28;22094;-79
2021/04/26 22:30:31;;;;;;;8.45;2.95;;;;;;;7.41;68.96;101380.91;10394942;28;20152;-80
2021/04/26 22:35:37;;;;;;;12.63;3.10;;;;;;;7.76;68.72;101435.31;10350136;28;20767;-80
2021/04/26 22:40:41;;;;;;;5.80;2.83;;;;;;;7.75;68.46;101428.34;10352175;28;20665;-80
2021/04/26 22:45:44;;;;;;;8.40;2.58;;;;;;;7.49;67.80;101390.03;10350264;28;20538;-80
2021/04/26 22:50:46;;;;;;;11.02;2.85;;;;;;;7.51;68.36;101385.91;10340750;28;20029;-80
2021/04/26 22:55:51;;;;;;;5.90;2.63;;;;;;;7.06;67.98;101331.88;10353456;28;20619;-80
2021/04/26 23:00:52;;;;;;;5.18;2.25;;;;;;;7.73;67.77;101429.78;10334661;28;20129;-80
2021/04/26 23:05:54;;;;;;;9.02;2.50;;;;;;;7.52;68.03;101403.63;10348930;28;20050;-80
2021/04/26 23:11:00;;;;;;;5.78;2.35;;;;;;;7.56;68.15;101409.94;10336700;28;20652;-80
2021/04/26 23:16:03;;;;;;;5.80;2.55;;;;;;;7.53;68.93;101424.03;10342153;28;20807;-80
2021/04/26 23:21:04;;;;;;;5.78;2.58;;;;;;;7.35;68.92;101387.56;10332597;28;20604;-80
2021/04/26 23:26:10;;;;;;;8.05;3.13;;;;;;;7.39;68.58;101399.25;10343953;28;20489;-79
2021/04/26 23:31:11;;;;;;;5.32;2.78;;;;;;;7.33;68.74;101405.94;10332637;28;20052;-80
2021/04/26 23:36:12;;;;;;;5.80;2.40;;;;;;;7.10;69.34;101382.00;10377549;28;20525;-80